createdAt,value
2023-02-19T00:03:15.592Z,99445.48
2023-02-19T00:08:18.467Z,99443.98
2023-02-19T00:13:21.371Z,99445.45
2023-02-19T00:18:24.684Z,99447.05
2023-02-19T00:23:28.305Z,99447.10
2023-02-19T00:28:31.214Z,99446.48
2023-02-19T00:33:34.216Z,99454.98
2023-02-19T00:38:38.962Z,99453.84
2023-02-19T00:43:41.764Z,99444.80
2023-02-19T00:48:44.981Z,99442.67
2023-02-19T00:53:47.980Z,99447.44
2023-02-19T00:58:51.009Z,99449.98
2023-02-19T01:03:54.101Z,99459.53
2023-02-19T01:08:56.998Z,99466.81
2023-02-19T01:14:01.182Z,99469.44
2023-02-19T01:19:04.243Z,99469.29
2023-02-19T01:24:07.242Z,99469.55
2023-02-19T01:29:10.515Z,99470.35
2023-02-19T01:34:13.353Z,99469.50
2023-02-19T01:39:16.265Z,99462.29
2023-02-19T01:44:19.573Z,99466.65
2023-02-19T01:49:26.267Z,99461.01
2023-02-19T01:54:36.215Z,99453.56
2023-02-19T01:59:40.020Z,99453.84
2023-02-19T02:04:43.169Z,99457.52
2023-02-19T02:10:04.708Z,99461.64
2023-02-19T02:15:08.226Z,99460.67
2023-02-19T02:20:35.710Z,99456.09
2023-02-19T02:26:08.415Z,99448.09
2023-02-19T02:31:16.755Z,99451.63
2023-02-19T02:36:29.100Z,99457.89
2023-02-19T02:41:33.617Z,99461.92
2023-02-19T02:46:40.538Z,99471.81
2023-02-19T02:51:53.138Z,99471.52
2023-02-19T02:56:58.190Z,99466.38
2023-02-19T03:02:12.136Z,99465.39
2023-02-19T03:07:15.477Z,99465.85
2023-02-19T03:12:39.465Z,99464.07
2023-02-19T03:18:11.459Z,99463.20
2023-02-19T03:23:17.632Z,99457.09
2023-02-19T03:28:42.966Z,99452.59
2023-02-19T03:33:50.576Z,99459.15
2023-02-19T03:39:00.973Z,99460.54
2023-02-19T03:44:16.863Z,99462.59
2023-02-19T03:49:56.946Z,99463.80
2023-02-19T03:55:02.812Z,99459.23
2023-02-19T04:00:21.072Z,99456.48
2023-02-19T04:05:28.176Z,99457.17
2023-02-19T04:10:32.181Z,99453.48
2023-02-19T04:15:40.491Z,99454.67
2023-02-19T04:20:46.309Z,99446.50
2023-02-19T04:25:53.624Z,99448.78
2023-02-19T04:30:56.545Z,99451.23
2023-02-19T04:35:59.423Z,99442.77
2023-02-19T04:41:02.227Z,99441.45
2023-02-19T04:46:05.371Z,99443.73
2023-02-19T04:51:09.517Z,99444.52
2023-02-19T04:56:16.152Z,99439.88
2023-02-19T05:01:19.308Z,99433.41
2023-02-19T05:06:22.164Z,99426.95
2023-02-19T05:11:25.067Z,99425.62
2023-02-19T05:16:28.074Z,99425.00
2023-02-19T05:21:31.094Z,99424.88
2023-02-19T05:26:34.534Z,99428.52
2023-02-19T05:31:37.489Z,99427.87
2023-02-19T05:36:40.607Z,99421.88
2023-02-19T05:41:43.513Z,99425.56
2023-02-19T05:46:46.346Z,99428.17
2023-02-19T05:51:52.492Z,99438.35
2023-02-19T05:56:55.804Z,99435.93
2023-02-19T06:01:58.606Z,99436.02
2023-02-19T06:07:01.408Z,99437.66
2023-02-19T06:12:04.618Z,99444.27
2023-02-19T06:17:07.301Z,99442.31
2023-02-19T06:22:10.536Z,99455.87
2023-02-19T06:27:13.330Z,99461.13
2023-02-19T06:32:17.112Z,99467.10
2023-02-19T06:37:20.062Z,99464.59
2023-02-19T06:42:22.982Z,99474.39
2023-02-19T06:47:25.870Z,99481.77
2023-02-19T06:52:28.784Z,99484.64
2023-02-19T06:57:31.882Z,99485.73
2023-02-19T07:02:34.683Z,99494.03
2023-02-19T07:07:37.584Z,99498.40
2023-02-19T07:12:40.381Z,99496.34
2023-02-19T07:17:43.287Z,99501.88
2023-02-19T07:22:46.315Z,99512.95
2023-02-19T07:27:49.195Z,99521.94
2023-02-19T07:32:52.114Z,99529.38
2023-02-19T07:37:54.971Z,99534.24
2023-02-19T07:42:59.702Z,99539.23
2023-02-19T07:48:02.759Z,99544.79
2023-02-19T07:53:06.124Z,99545.39
2023-02-19T07:58:08.873Z,99546.59
2023-02-19T08:03:12.307Z,99552.13
2023-02-19T08:08:16.011Z,99556.25
2023-02-19T08:13:19.416Z,99563.49
2023-02-19T08:18:23.762Z,99573.50
2023-02-19T08:23:27.946Z,99579.97
2023-02-19T08:28:31.207Z,99582.66
2023-02-19T08:33:34.532Z,99582.93
2023-02-19T08:38:38.096Z,99586.91
2023-02-19T08:43:42.022Z,99593.29
2023-02-19T08:48:44.969Z,99598.61
2023-02-19T08:53:47.989Z,99604.33
2023-02-19T08:58:50.881Z,99612.46
2023-02-19T09:03:53.706Z,99610.80
2023-02-19T09:08:56.582Z,99617.17
2023-02-19T09:13:59.484Z,99622.67
2023-02-19T09:19:03.058Z,99622.55
2023-02-19T09:24:09.722Z,99628.13
2023-02-19T09:29:12.609Z,99631.82
2023-02-19T09:34:15.505Z,99637.75
2023-02-19T09:39:19.234Z,99636.55
2023-02-19T09:44:29.607Z,99644.05
2023-02-19T09:49:35.900Z,99645.40
2023-02-19T09:54:40.444Z,99649.69
2023-02-19T09:59:54.276Z,99653.37
2023-02-19T10:04:57.756Z,99660.31
2023-02-19T10:10:18.888Z,99662.85
2023-02-19T10:15:38.116Z,99664.92
2023-02-19T10:20:41.129Z,99673.96
2023-02-19T10:25:54.580Z,99680.92
2023-02-19T10:30:59.966Z,99683.70
2023-02-19T10:36:16.263Z,99687.21
2023-02-19T10:41:22.031Z,99689.72
2023-02-19T10:46:28.834Z,99686.61
2023-02-19T10:51:35.423Z,99687.91
2023-02-19T10:56:40.880Z,99689.90
2023-02-19T11:02:00.526Z,99694.12
2023-02-19T11:07:17.405Z,99691.80
2023-02-19T11:12:29.822Z,99700.13
2023-02-19T11:17:33.293Z,99707.92
2023-02-19T11:22:39.930Z,99709.66
2023-02-19T11:28:07.388Z,99714.43
2023-02-19T11:33:16.256Z,99727.45
2023-02-19T11:38:20.254Z,99728.27
2023-02-19T11:43:44.908Z,99735.76
2023-02-19T11:49:11.673Z,99741.08
2023-02-19T11:54:36.391Z,99742.52
2023-02-19T11:59:59.358Z,99752.33
2023-02-19T12:05:22.014Z,99745.64
2023-02-19T12:10:49.710Z,99752.44
2023-02-19T12:16:10.749Z,99751.88
2023-02-19T12:21:35.557Z,99760.86
2023-02-19T12:26:46.893Z,99764.54
2023-02-19T12:32:13.518Z,99766.48
2023-02-19T12:37:30.962Z,99774.18
2023-02-19T12:42:50.806Z,99783.83
2023-02-19T12:48:05.442Z,99782.20
2023-02-19T12:53:19.206Z,99783.70
2023-02-19T12:58:39.826Z,99786.17
2023-02-19T13:03:52.555Z,99789.27
2023-02-19T13:09:29.406Z,99799.65
2023-02-19T13:15:04.214Z,99801.92
2023-02-19T13:20:22.274Z,99810.48
2023-02-19T13:25:46.570Z,99812.78
2023-02-19T13:31:02.962Z,99813.94
2023-02-19T13:36:10.708Z,99813.09
2023-02-19T13:41:21.807Z,99815.96
2023-02-19T13:46:25.651Z,99815.42
2023-02-19T13:51:28.433Z,99819.59
2023-02-19T13:56:34.492Z,99820.91
2023-02-19T14:02:03.534Z,99827.85
2023-02-19T14:07:06.322Z,99836.29
2023-02-19T14:12:16.072Z,99839.44
2023-02-19T14:17:45.967Z,99842.29
2023-02-19T14:23:01.579Z,99850.70
2023-02-19T14:28:10.486Z,99850.88
2023-02-19T14:33:17.450Z,99849.48
2023-02-19T14:38:30.512Z,99860.25
2023-02-19T14:43:35.405Z,99868.23
2023-02-19T14:48:43.648Z,99875.26
2023-02-19T14:53:47.028Z,99876.65
2023-02-19T14:59:28.011Z,99887.14
2023-02-19T15:04:37.233Z,99894.48
2023-02-19T15:09:45.487Z,99901.25
2023-02-19T15:14:49.750Z,99904.64
2023-02-19T15:19:53.181Z,99904.88
2023-02-19T15:24:56.086Z,99909.68
2023-02-19T15:29:58.893Z,99915.92
2023-02-19T15:35:04.317Z,99929.88
2023-02-19T15:40:08.395Z,99935.05
2023-02-19T15:45:28.653Z,99947.23
2023-02-19T15:50:37.600Z,99960.28
2023-02-19T15:55:51.810Z,99967.53
2023-02-19T16:00:58.539Z,99974.20
2023-02-19T16:06:11.504Z,99988.06
2023-02-19T16:11:23.214Z,99989.77
2023-02-19T16:16:35.360Z,99988.88
2023-02-19T16:21:38.794Z,99997.46
2023-02-19T16:26:43.067Z,100009.98
2023-02-19T16:31:55.163Z,100018.83
2023-02-19T16:36:58.091Z,100018.02
2023-02-19T16:42:02.233Z,100020.67
2023-02-19T16:47:12.541Z,100023.14
2023-02-19T16:52:17.117Z,100024.23
2023-02-19T16:57:20.736Z,100031.53
2023-02-19T17:02:25.202Z,100046.39
2023-02-19T17:07:28.211Z,100053.65
2023-02-19T17:12:31.117Z,100060.56
2023-02-19T17:17:34.875Z,100070.92
2023-02-19T17:22:37.741Z,100075.92
2023-02-19T17:27:41.470Z,100078.67
2023-02-19T17:32:44.467Z,100079.55
2023-02-19T17:37:47.476Z,100078.85
2023-02-19T17:42:50.707Z,100071.27
2023-02-19T17:47:53.502Z,100077.64
2023-02-19T17:52:56.402Z,100083.33
2023-02-19T17:58:00.050Z,100083.51
2023-02-19T18:03:03.940Z,100083.86
2023-02-19T18:08:07.250Z,100092.48
2023-02-19T18:13:10.667Z,100100.40
2023-02-19T18:18:13.491Z,100106.80
2023-02-19T18:23:16.584Z,100106.45
2023-02-19T18:28:19.376Z,100107.30
2023-02-19T18:33:22.385Z,100107.30
2023-02-19T18:38:25.288Z,100110.41
2023-02-19T18:43:28.291Z,100106.96
2023-02-19T18:48:31.060Z,100110.06
2023-02-19T18:53:33.845Z,100116.95
2023-02-19T18:58:36.692Z,100124.54
2023-02-19T19:03:39.640Z,100125.40
2023-02-19T19:08:42.413Z,100136.44
2023-02-19T19:13:46.339Z,100127.65
2023-02-19T19:18:49.493Z,100118.52
2023-02-19T19:23:52.343Z,100121.97
2023-02-19T19:28:55.244Z,100111.96
2023-02-19T19:33:58.158Z,100109.89
2023-02-19T19:39:01.001Z,100113.35
2023-02-19T19:44:08.463Z,100125.94
2023-02-19T19:49:12.104Z,100116.63
2023-02-19T19:54:15.521Z,100103.51
2023-02-19T19:59:19.063Z,100106.62
2023-02-19T20:04:23.371Z,100105.06
2023-02-19T20:09:29.215Z,100103.33
2023-02-19T20:14:32.335Z,100115.92
2023-02-19T20:19:35.231Z,100122.83
2023-02-19T20:24:38.134Z,100132.30
2023-02-19T20:29:44.319Z,100138.35
2023-02-19T20:34:48.146Z,100138.34
2023-02-19T20:39:51.045Z,100129.52
2023-02-19T20:44:53.846Z,100137.30
2023-02-19T20:49:57.021Z,100141.09
2023-02-19T20:54:59.960Z,100135.73
2023-02-19T21:00:03.784Z,100131.59
2023-02-19T21:05:06.996Z,100131.06
2023-02-19T21:10:10.423Z,100126.39
2023-02-19T21:15:14.948Z,100126.38
2023-02-19T21:20:18.160Z,100127.94
2023-02-19T21:25:21.166Z,100126.40
2023-02-19T21:30:24.204Z,100127.47
2023-02-19T21:35:27.283Z,100126.10
2023-02-19T21:40:32.134Z,100129.91
2023-02-19T21:45:34.966Z,100125.25
2023-02-19T21:50:37.835Z,100121.45
2023-02-19T21:55:42.907Z,100108.68
2023-02-19T22:00:54.249Z,100110.94
2023-02-19T22:05:57.296Z,100112.66
2023-02-19T22:11:00.128Z,100107.82
2023-02-19T22:16:03.633Z,100107.48
2023-02-19T22:21:06.666Z,100104.89
2023-02-19T22:26:09.827Z,100107.47
2023-02-19T22:31:14.446Z,100108.16
2023-02-19T22:36:20.145Z,100099.36
2023-02-19T22:41:23.707Z,100095.04
2023-02-19T22:46:29.497Z,100095.39
2023-02-19T22:51:33.565Z,100095.20
2023-02-19T22:56:36.345Z,100097.10
2023-02-19T23:01:39.274Z,100091.93
2023-02-19T23:06:44.660Z,100091.26
2023-02-19T23:11:47.560Z,100084.87
2023-02-19T23:16:50.485Z,100073.65
2023-02-19T23:21:53.345Z,100072.61
2023-02-19T23:26:56.156Z,100067.59
2023-02-19T23:32:00.475Z,100064.83
2023-02-19T23:37:03.589Z,100059.11
2023-02-19T23:42:06.392Z,100061.17
2023-02-19T23:47:09.187Z,100062.41
2023-02-19T23:52:12.093Z,100055.36
2023-02-19T23:57:15.300Z,100058.65
